createdAt,value
2024-02-15T00:00:36.965Z,10.30
2024-02-15T00:03:07.680Z,6.93
2024-02-15T00:05:37.693Z,6.67
2024-02-15T00:08:07.254Z,5.57
2024-02-15T00:10:35.623Z,5.40
2024-02-15T00:13:04.130Z,5.20
2024-02-15T00:15:34.569Z,9.57
2024-02-15T00:18:04.064Z,6.13
2024-02-15T00:20:35.024Z,8.23
2024-02-15T00:23:03.575Z,6.70
2024-02-15T00:25:32.297Z,6.70
2024-02-15T00:28:02.999Z,7.07
2024-02-15T00:30:32.667Z,5.73
2024-02-15T00:33:04.109Z,6.17
2024-02-15T00:35:33.238Z,6.07
2024-02-15T00:38:02.053Z,7.67
2024-02-15T00:40:30.347Z,8.20
2024-02-15T00:42:58.658Z,8.67
2024-02-15T00:45:27.086Z,7.10
2024-02-15T00:47:57.383Z,7.73
2024-02-15T00:50:27.123Z,7.37
2024-02-15T00:52:55.524Z,7.73
2024-02-15T00:55:23.950Z,7.37
2024-02-15T00:57:52.415Z,7.27
2024-02-15T01:00:21.711Z,7.57
2024-02-15T01:02:50.593Z,6.03
2024-02-15T01:05:19.628Z,6.10
2024-02-15T01:07:50.103Z,6.70
2024-02-15T01:10:18.633Z,5.97
2024-02-15T01:12:46.977Z,10.73
2024-02-15T01:15:17.069Z,8.70
2024-02-15T01:17:45.537Z,6.93
2024-02-15T01:20:14.081Z,9.90
2024-02-15T01:22:42.444Z,7.77
2024-02-15T01:25:12.120Z,9.17
2024-02-15T01:27:40.941Z,15.93
2024-02-15T01:30:11.466Z,7.77
2024-02-15T01:32:43.285Z,9.80
2024-02-15T01:35:12.255Z,8.13
2024-02-15T01:37:40.488Z,8.90
2024-02-15T01:40:11.018Z,9.07
2024-02-15T01:42:40.440Z,9.77
2024-02-15T01:45:11.250Z,8.37
2024-02-15T01:47:41.348Z,11.70
2024-02-15T01:50:10.409Z,9.77
2024-02-15T01:52:38.804Z,11.67
2024-02-15T01:55:09.578Z,10.90
2024-02-15T01:57:48.131Z,8.30
2024-02-15T02:00:19.485Z,8.77
2024-02-15T02:02:48.799Z,11.37
2024-02-15T02:05:17.196Z,10.73
2024-02-15T02:07:45.576Z,10.23
2024-02-15T02:10:15.494Z,9.47
2024-02-15T02:12:43.824Z,11.17
2024-02-15T02:15:13.350Z,10.83
2024-02-15T02:17:42.274Z,8.93
2024-02-15T02:20:14.980Z,9.57
2024-02-15T02:22:46.757Z,14.60
2024-02-15T02:25:16.361Z,9.53
2024-02-15T02:27:44.802Z,9.67
2024-02-15T02:30:18.700Z,11.13
2024-02-15T02:32:47.707Z,11.70
2024-02-15T02:35:17.322Z,11.53
2024-02-15T02:37:46.266Z,11.90
2024-02-15T02:40:14.677Z,15.13
2024-02-15T02:42:57.274Z,17.53
2024-02-15T02:45:26.244Z,10.90
2024-02-15T02:47:55.221Z,13.47
2024-02-15T02:50:24.731Z,11.63
2024-02-15T02:52:53.155Z,10.63
2024-02-15T02:55:22.677Z,13.77
2024-02-15T02:57:50.992Z,13.10
2024-02-15T03:00:21.302Z,14.40
2024-02-15T03:02:49.821Z,13.60
2024-02-15T03:05:22.102Z,11.77
2024-02-15T03:07:52.768Z,8.47
2024-02-15T03:10:26.007Z,10.67
2024-02-15T03:12:54.402Z,9.27
2024-02-15T03:15:23.906Z,12.33
2024-02-15T03:17:52.645Z,8.53
2024-02-15T03:20:25.154Z,9.07
2024-02-15T03:22:54.715Z,8.27
2024-02-15T03:25:25.122Z,15.17
2024-02-15T03:27:54.260Z,10.53
2024-02-15T03:30:25.082Z,9.50
2024-02-15T03:32:53.797Z,8.93
2024-02-15T03:35:24.505Z,13.07
2024-02-15T03:37:53.568Z,10.43
2024-02-15T03:40:22.403Z,10.47
2024-02-15T03:42:51.405Z,10.77
2024-02-15T03:45:20.048Z,12.23
2024-02-15T03:47:51.498Z,9.47
2024-02-15T03:50:20.288Z,9.97
2024-02-15T03:52:48.393Z,11.20
2024-02-15T03:55:16.851Z,10.03
2024-02-15T03:57:46.981Z,8.37
2024-02-15T04:00:16.947Z,9.23
2024-02-15T04:02:45.592Z,6.97
2024-02-15T04:05:15.358Z,5.17
2024-02-15T04:07:44.781Z,6.13
2024-02-15T04:10:13.563Z,9.00
2024-02-15T04:12:43.325Z,10.97
2024-02-15T04:15:15.178Z,8.43
2024-02-15T04:17:45.455Z,10.17
2024-02-15T04:20:17.178Z,7.60
2024-02-15T04:22:45.708Z,9.37
2024-02-15T04:25:17.545Z,10.83
2024-02-15T04:27:47.322Z,10.27
2024-02-15T04:30:16.790Z,9.50
2024-02-15T04:32:46.043Z,11.80
2024-02-15T04:35:15.899Z,7.10
2024-02-15T04:37:44.595Z,6.80
2024-02-15T04:40:14.865Z,10.87
2024-02-15T04:42:46.311Z,8.40
2024-02-15T04:45:16.888Z,9.47
2024-02-15T04:47:46.880Z,8.63
2024-02-15T04:50:19.417Z,7.17
2024-02-15T04:52:49.587Z,5.80
2024-02-15T04:55:19.026Z,7.07
2024-02-15T04:57:49.986Z,5.93
2024-02-15T05:00:22.399Z,10.20
2024-02-15T05:02:51.282Z,6.17
2024-02-15T05:05:22.936Z,8.30
2024-02-15T05:07:51.627Z,7.90
2024-02-15T05:10:19.961Z,8.93
2024-02-15T05:12:49.331Z,8.73
2024-02-15T05:15:19.615Z,9.13
2024-02-15T05:17:49.130Z,10.83
2024-02-15T05:20:18.078Z,11.23
2024-02-15T05:22:50.456Z,8.77
2024-02-15T05:25:24.533Z,11.17
2024-02-15T05:27:54.889Z,15.50
2024-02-15T05:30:23.695Z,12.10
2024-02-15T05:32:53.966Z,8.63
2024-02-15T05:35:22.406Z,11.03
2024-02-15T05:37:53.960Z,13.23
2024-02-15T05:40:22.567Z,9.90
2024-02-15T05:42:56.905Z,8.63
2024-02-15T05:45:35.411Z,8.67
2024-02-15T05:48:04.145Z,12.17
2024-02-15T05:50:32.834Z,17.13
2024-02-15T05:53:02.844Z,7.67
2024-02-15T05:55:34.900Z,12.27
2024-02-15T05:58:03.483Z,12.23
2024-02-15T06:00:32.341Z,15.13
2024-02-15T06:03:03.750Z,9.30
2024-02-15T06:05:31.845Z,10.83
2024-02-15T06:08:00.382Z,6.77
2024-02-15T06:10:30.543Z,6.80
2024-02-15T06:12:59.577Z,8.33
2024-02-15T06:15:27.728Z,6.70
2024-02-15T06:17:56.091Z,6.97
2024-02-15T06:20:25.495Z,9.57
2024-02-15T06:22:54.145Z,5.03
2024-02-15T06:25:23.420Z,8.57
2024-02-15T06:28:00.593Z,8.47
2024-02-15T06:30:46.805Z,6.33
2024-02-15T06:33:32.747Z,6.23
2024-02-15T06:36:18.346Z,5.80
2024-02-15T06:39:04.479Z,6.23
2024-02-15T06:41:32.441Z,4.47
2024-02-15T06:44:02.116Z,3.97
2024-02-15T06:46:30.062Z,4.63
2024-02-15T06:48:59.564Z,5.80
2024-02-15T06:51:27.732Z,4.57
2024-02-15T06:53:57.560Z,4.93
2024-02-15T06:56:26.570Z,4.00
2024-02-15T06:58:56.114Z,5.83
2024-02-15T07:01:27.802Z,2.27
2024-02-15T07:03:59.604Z,9.17
2024-02-15T07:06:29.326Z,4.37
2024-02-15T07:08:59.249Z,5.33
2024-02-15T07:11:27.418Z,5.50
2024-02-15T07:13:55.957Z,3.17
2024-02-15T07:16:24.565Z,4.07
2024-02-15T07:18:54.635Z,3.37
2024-02-15T07:21:27.192Z,7.10
2024-02-15T07:23:56.496Z,3.03
2024-02-15T07:26:25.650Z,6.43
2024-02-15T07:28:54.735Z,3.07
2024-02-15T07:31:24.053Z,3.87
2024-02-15T07:33:54.738Z,4.53
2024-02-15T07:36:23.684Z,6.27
2024-02-15T07:38:52.579Z,10.10
2024-02-15T07:41:23.497Z,4.63
2024-02-15T07:43:52.572Z,4.87
2024-02-15T07:46:21.302Z,5.47
2024-02-15T07:48:50.019Z,6.73
2024-02-15T07:51:21.061Z,3.53
2024-02-15T07:53:50.465Z,4.70
2024-02-15T07:56:20.228Z,3.27
2024-02-15T07:58:54.078Z,5.00
2024-02-15T08:01:23.742Z,2.90
2024-02-15T08:03:54.650Z,4.93
2024-02-15T08:06:28.030Z,2.87
2024-02-15T08:08:56.680Z,2.60
2024-02-15T08:11:27.858Z,2.57
2024-02-15T08:13:59.781Z,7.77
2024-02-15T08:16:29.462Z,3.30
2024-02-15T08:18:58.975Z,3.20
2024-02-15T08:21:34.182Z,5.40
2024-02-15T08:24:06.545Z,3.50
2024-02-15T08:26:36.563Z,8.73
2024-02-15T08:29:05.253Z,6.97
2024-02-15T08:31:33.605Z,3.20
2024-02-15T08:34:02.018Z,4.13
2024-02-15T08:36:32.968Z,7.03
2024-02-15T08:39:01.576Z,6.00
2024-02-15T08:41:30.125Z,5.20
2024-02-15T08:43:59.658Z,6.97
2024-02-15T08:46:28.373Z,5.73
2024-02-15T08:48:57.062Z,7.40
2024-02-15T08:51:25.948Z,3.67
2024-02-15T08:53:58.481Z,6.33
2024-02-15T08:56:27.057Z,5.30
2024-02-15T08:58:56.250Z,3.57
2024-02-15T09:01:24.730Z,5.07
2024-02-15T09:03:52.941Z,9.37
2024-02-15T09:06:21.388Z,2.80
2024-02-15T09:08:49.960Z,2.47
2024-02-15T09:11:20.101Z,2.30
2024-02-15T09:13:54.558Z,4.10
2024-02-15T09:16:23.028Z,4.00
2024-02-15T09:18:51.535Z,4.93
2024-02-15T09:21:20.102Z,5.37
2024-02-15T09:23:49.961Z,5.40
2024-02-15T09:26:20.500Z,5.10
2024-02-15T09:28:48.836Z,3.40
2024-02-15T09:31:17.025Z,7.53
2024-02-15T09:33:46.114Z,3.77
2024-02-15T09:36:15.081Z,3.30
2024-02-15T09:38:43.473Z,3.50
2024-02-15T09:41:11.699Z,2.90
2024-02-15T09:43:41.486Z,6.13
2024-02-15T09:46:09.809Z,4.07
2024-02-15T09:48:38.705Z,5.80
2024-02-15T09:51:08.785Z,3.00
2024-02-15T09:53:37.525Z,6.93
2024-02-15T09:56:07.357Z,4.17
2024-02-15T09:58:36.422Z,3.27
2024-02-15T10:01:10.750Z,2.57
2024-02-15T10:03:41.525Z,2.90
2024-02-15T10:06:09.902Z,4.10
2024-02-15T10:08:38.990Z,3.87
2024-02-15T10:11:11.158Z,4.33
2024-02-15T10:13:40.848Z,4.43
2024-02-15T10:16:20.419Z,4.63
2024-02-15T10:18:49.541Z,4.03
2024-02-15T10:21:29.351Z,1.73
2024-02-15T10:24:08.210Z,2.30
2024-02-15T10:26:37.368Z,5.90
2024-02-15T10:29:12.228Z,3.80
2024-02-15T10:31:53.854Z,2.17
2024-02-15T10:34:23.315Z,2.70
2024-02-15T10:36:52.088Z,3.70
2024-02-15T10:39:21.722Z,2.47
2024-02-15T10:41:51.577Z,3.57
2024-02-15T10:44:20.971Z,5.83
2024-02-15T10:46:52.992Z,3.73
2024-02-15T10:49:22.324Z,4.70
2024-02-15T10:51:57.178Z,8.90
2024-02-15T10:54:49.228Z,9.00
2024-02-15T10:57:23.600Z,3.47
2024-02-15T10:59:58.468Z,3.07
2024-02-15T11:02:31.904Z,4.37
2024-02-15T11:05:06.206Z,2.03
2024-02-15T11:07:35.574Z,3.27
2024-02-15T11:10:06.054Z,7.33
2024-02-15T11:12:34.344Z,3.30
2024-02-15T11:15:02.802Z,2.50
2024-02-15T11:17:57.296Z,4.63
2024-02-15T11:20:53.881Z,3.87
2024-02-15T11:23:36.174Z,1.35
2024-02-15T11:26:10.939Z,1.57
2024-02-15T11:28:41.308Z,2.80
2024-02-15T11:31:37.597Z,5.03
2024-02-15T11:34:39.331Z,4.83
2024-02-15T11:37:09.288Z,1.95
2024-02-15T11:39:45.042Z,4.43
2024-02-15T11:42:30.555Z,2.67
2024-02-15T11:45:09.720Z,2.93
2024-02-15T11:47:43.433Z,2.30
2024-02-15T11:50:15.830Z,3.03
2024-02-15T11:52:47.095Z,1.80
2024-02-15T11:55:15.524Z,2.63
2024-02-15T11:57:51.785Z,2.10
2024-02-15T12:00:42.682Z,2.23
2024-02-15T12:03:29.135Z,13.57
2024-02-15T12:06:15.044Z,2.50
2024-02-15T12:09:04.233Z,6.45
2024-02-15T12:11:49.662Z,2.42
2024-02-15T12:14:35.665Z,5.23
2024-02-15T12:17:22.308Z,6.30
2024-02-15T12:19:52.396Z,5.53
2024-02-15T12:22:24.735Z,6.80
2024-02-15T12:24:57.932Z,9.47
2024-02-15T12:27:28.198Z,8.30
2024-02-15T12:29:59.868Z,12.10
2024-02-15T12:32:29.135Z,8.05
2024-02-15T12:35:16.956Z,15.00
2024-02-15T12:37:44.971Z,7.03
2024-02-15T12:40:17.044Z,4.70
2024-02-15T12:42:46.114Z,4.73
2024-02-15T12:45:21.656Z,2.03
2024-02-15T12:47:51.915Z,1.85
2024-02-15T12:50:22.756Z,2.75
2024-02-15T12:52:51.614Z,3.85
2024-02-15T12:55:22.491Z,4.03
2024-02-15T12:57:52.826Z,1.60
2024-02-15T13:00:22.492Z,3.00
2024-02-15T13:02:52.434Z,3.45
2024-02-15T13:05:21.440Z,5.45
2024-02-15T13:07:50.070Z,2.65
2024-02-15T13:10:18.574Z,1.95
2024-02-15T13:12:48.204Z,2.03
2024-02-15T13:15:19.119Z,2.33
2024-02-15T13:17:47.876Z,2.42
2024-02-15T13:20:16.240Z,2.92
2024-02-15T13:22:45.784Z,2.88
2024-02-15T13:25:14.373Z,4.90
2024-02-15T13:27:42.428Z,5.68
2024-02-15T13:30:12.637Z,2.25
2024-02-15T13:32:42.131Z,3.10
2024-02-15T13:35:15.192Z,3.42
2024-02-15T13:37:45.188Z,3.22
2024-02-15T13:40:16.403Z,3.10
2024-02-15T13:42:50.358Z,3.35
2024-02-15T13:45:20.137Z,2.30
2024-02-15T13:47:49.211Z,3.35
2024-02-15T13:50:18.285Z,2.05
2024-02-15T13:52:46.928Z,1.55
2024-02-15T13:55:15.930Z,2.42
2024-02-15T13:57:47.712Z,4.78
2024-02-15T14:00:22.553Z,1.60
2024-02-15T14:02:54.317Z,1.95
2024-02-15T14:05:29.782Z,2.80
2024-02-15T14:07:59.232Z,2.53
2024-02-15T14:10:28.233Z,4.00
2024-02-15T14:12:59.356Z,3.40
2024-02-15T14:15:27.907Z,2.95
2024-02-15T14:17:57.506Z,4.05
2024-02-15T14:20:25.813Z,1.60
2024-02-15T14:22:57.207Z,1.80
2024-02-15T14:25:26.532Z,1.10
2024-02-15T14:27:58.043Z,0.90
2024-02-15T14:30:43.937Z,2.92
2024-02-15T14:33:21.932Z,3.45
2024-02-15T14:35:51.657Z,3.05
2024-02-15T14:38:21.582Z,4.25
2024-02-15T14:40:54.540Z,3.17
2024-02-15T14:43:23.523Z,1.75
2024-02-15T14:45:52.718Z,1.20
2024-02-15T14:48:22.819Z,1.52
2024-02-15T14:50:52.850Z,2.97
2024-02-15T14:53:21.647Z,2.95
2024-02-15T14:55:50.486Z,3.78
2024-02-15T14:58:19.441Z,2.20
2024-02-15T15:00:48.755Z,2.33
2024-02-15T15:03:18.406Z,0.95
2024-02-15T15:06:05.766Z,3.80
2024-02-15T15:08:51.849Z,3.20
2024-02-15T15:11:38.229Z,2.03
2024-02-15T15:14:07.311Z,3.03
2024-02-15T15:16:36.119Z,2.17
2024-02-15T15:19:04.946Z,2.80
2024-02-15T15:21:34.461Z,2.78
2024-02-15T15:24:02.516Z,3.17
2024-02-15T15:26:32.394Z,1.80
2024-02-15T15:29:01.251Z,0.98
2024-02-15T15:31:30.597Z,5.25
2024-02-15T15:33:58.935Z,1.55
2024-02-15T15:36:27.127Z,4.07
2024-02-15T15:38:56.450Z,1.65
2024-02-15T15:41:24.799Z,3.40
2024-02-15T15:43:53.002Z,3.47
2024-02-15T15:46:20.973Z,2.95
2024-02-15T15:48:49.264Z,3.40
2024-02-15T15:51:18.476Z,3.60
2024-02-15T15:53:48.040Z,1.58
2024-02-15T15:56:18.487Z,2.55
2024-02-15T15:58:49.168Z,1.70
2024-02-15T16:01:20.081Z,1.10
2024-02-15T16:03:51.662Z,3.13
2024-02-15T16:06:20.201Z,1.58
2024-02-15T16:08:48.680Z,2.13
2024-02-15T16:11:18.519Z,1.77
2024-02-15T16:13:47.761Z,4.05
2024-02-15T16:16:16.533Z,4.00
2024-02-15T16:18:44.976Z,3.55
2024-02-15T16:21:13.154Z,5.40
2024-02-15T16:23:41.530Z,3.90
2024-02-15T16:26:09.633Z,5.75
2024-02-15T16:28:46.863Z,3.57
2024-02-15T16:31:15.495Z,1.83
2024-02-15T16:33:43.587Z,2.28
2024-02-15T16:36:10.944Z,4.57
2024-02-15T16:38:40.766Z,1.77
2024-02-15T16:41:09.976Z,1.67
2024-02-15T16:43:39.815Z,3.13
2024-02-15T16:46:09.140Z,2.73
2024-02-15T16:48:37.488Z,2.78
2024-02-15T16:51:07.842Z,4.07
2024-02-15T16:53:36.123Z,2.00
2024-02-15T16:56:04.389Z,2.78
2024-02-15T16:58:32.720Z,1.95
2024-02-15T17:01:05.624Z,3.23
2024-02-15T17:03:34.083Z,1.50
2024-02-15T17:06:04.267Z,2.43
2024-02-15T17:08:32.612Z,2.53
2024-02-15T17:11:03.661Z,5.90
2024-02-15T17:13:32.285Z,1.63
2024-02-15T17:16:00.305Z,1.90
2024-02-15T17:18:29.758Z,5.37
2024-02-15T17:20:58.108Z,4.28
2024-02-15T17:23:26.470Z,3.37
2024-02-15T17:25:55.464Z,3.55
2024-02-15T17:28:23.919Z,4.28
2024-02-15T17:30:52.261Z,1.90
2024-02-15T17:33:20.501Z,2.38
2024-02-15T17:35:51.517Z,2.53
2024-02-15T17:38:19.627Z,4.88
2024-02-15T17:40:49.826Z,5.57
2024-02-15T17:43:18.138Z,2.73
2024-02-15T17:45:47.873Z,3.13
2024-02-15T17:48:19.718Z,2.73
2024-02-15T17:50:48.481Z,4.57
2024-02-15T17:53:17.927Z,2.93
2024-02-15T17:55:46.097Z,3.30
2024-02-15T17:58:14.300Z,3.10
2024-02-15T18:00:44.333Z,5.30
2024-02-15T18:03:13.315Z,5.10
2024-02-15T18:05:47.286Z,3.63
2024-02-15T18:08:18.649Z,3.73
2024-02-15T18:10:47.631Z,2.13
2024-02-15T18:13:16.223Z,3.60
2024-02-15T18:15:49.034Z,2.97
2024-02-15T18:18:19.423Z,17.80
2024-02-15T18:20:47.939Z,2.23
2024-02-15T18:23:19.363Z,3.27
2024-02-15T18:25:47.720Z,2.17
2024-02-15T18:28:17.200Z,3.60
2024-02-15T18:30:48.547Z,2.63
2024-02-15T18:33:18.113Z,4.57
2024-02-15T18:35:46.781Z,3.77
2024-02-15T18:38:16.761Z,1.40
2024-02-15T18:40:46.250Z,3.53
2024-02-15T18:43:15.914Z,2.00
2024-02-15T18:45:44.400Z,6.10
2024-02-15T18:48:12.662Z,2.17
2024-02-15T18:50:41.240Z,1.67
2024-02-15T18:53:11.370Z,0.90
2024-02-15T18:55:40.063Z,2.10
2024-02-15T18:58:10.296Z,2.17
2024-02-15T19:00:46.286Z,2.87
2024-02-15T19:03:20.898Z,2.37
2024-02-15T19:05:49.284Z,1.67
2024-02-15T19:08:18.390Z,1.97
2024-02-15T19:10:46.437Z,2.00
2024-02-15T19:13:15.859Z,0.80
2024-02-15T19:15:43.875Z,3.03
2024-02-15T19:18:12.159Z,2.37
2024-02-15T19:20:42.312Z,4.20
2024-02-15T19:23:10.503Z,2.33
2024-02-15T19:25:38.823Z,3.33
2024-02-15T19:28:08.800Z,1.40
2024-02-15T19:30:38.493Z,2.50
2024-02-15T19:33:06.873Z,6.07
2024-02-15T19:35:35.351Z,1.67
2024-02-15T19:38:03.371Z,1.90
2024-02-15T19:40:31.508Z,1.87
2024-02-15T19:43:00.283Z,1.60
2024-02-15T19:45:28.728Z,4.20
2024-02-15T19:47:58.257Z,2.47
2024-02-15T19:50:28.536Z,2.93
2024-02-15T19:52:58.341Z,1.33
2024-02-15T19:55:27.318Z,7.53
2024-02-15T19:57:57.707Z,3.60
2024-02-15T20:00:26.504Z,2.77
2024-02-15T20:02:55.177Z,5.40
2024-02-15T20:05:27.703Z,3.57
2024-02-15T20:07:55.892Z,4.87
2024-02-15T20:10:24.264Z,4.73
2024-02-15T20:12:52.267Z,2.77
2024-02-15T20:15:20.767Z,4.00
2024-02-15T20:17:49.016Z,3.03
2024-02-15T20:20:19.572Z,3.07
2024-02-15T20:22:49.174Z,3.97
2024-02-15T20:25:17.486Z,1.07
2024-02-15T20:27:45.957Z,1.30
2024-02-15T20:30:16.178Z,2.33
2024-02-15T20:32:44.699Z,3.00
2024-02-15T20:35:14.808Z,13.17
2024-02-15T20:37:43.284Z,3.93
2024-02-15T20:40:13.674Z,2.17
2024-02-15T20:42:42.090Z,6.33
2024-02-15T20:45:10.819Z,1.07
2024-02-15T20:47:39.549Z,2.27
2024-02-15T20:50:08.942Z,1.87
2024-02-15T20:52:36.996Z,2.80
2024-02-15T20:55:05.519Z,3.60
2024-02-15T20:57:34.883Z,3.60
2024-02-15T21:00:03.310Z,3.03
2024-02-15T21:02:32.605Z,1.53
2024-02-15T21:05:00.906Z,1.63
2024-02-15T21:07:29.011Z,4.10
2024-02-15T21:09:58.078Z,3.83
2024-02-15T21:12:26.378Z,1.33
2024-02-15T21:14:55.826Z,3.90
2024-02-15T21:17:24.758Z,1.40
2024-02-15T21:19:53.049Z,1.90
2024-02-15T21:22:21.319Z,2.10
2024-02-15T21:24:49.557Z,2.90
2024-02-15T21:27:18.952Z,1.17
2024-02-15T21:29:48.743Z,1.47
2024-02-15T21:32:18.190Z,1.93
2024-02-15T21:34:46.312Z,1.53
2024-02-15T21:37:15.425Z,1.60
2024-02-15T21:39:44.049Z,1.50
2024-02-15T21:42:12.500Z,3.70
2024-02-15T21:44:40.547Z,1.30
2024-02-15T21:47:10.049Z,4.43
2024-02-15T21:49:41.770Z,1.37
2024-02-15T21:52:10.207Z,3.87
2024-02-15T21:54:38.500Z,4.20
2024-02-15T21:57:07.633Z,3.23
2024-02-15T21:59:36.121Z,1.40
2024-02-15T22:02:08.481Z,3.90
2024-02-15T22:04:36.936Z,2.67
2024-02-15T22:07:07.994Z,1.93
2024-02-15T22:09:38.893Z,1.53
2024-02-15T22:12:09.808Z,4.23
2024-02-15T22:14:40.212Z,0.97
2024-02-15T22:17:08.652Z,4.77
2024-02-15T22:19:37.202Z,2.27
2024-02-15T22:22:08.363Z,1.50
2024-02-15T22:24:36.389Z,1.43
2024-02-15T22:27:04.982Z,1.67
2024-02-15T22:29:34.355Z,1.50
2024-02-15T22:32:03.534Z,3.90
2024-02-15T22:34:32.832Z,3.73
2024-02-15T22:37:00.989Z,3.27
2024-02-15T22:39:30.879Z,1.07
2024-02-15T22:42:00.705Z,2.87
2024-02-15T22:44:31.018Z,2.23
2024-02-15T22:46:59.314Z,3.30
2024-02-15T22:49:27.735Z,1.73
2024-02-15T22:51:56.359Z,2.57
2024-02-15T22:54:26.450Z,5.23
2024-02-15T22:56:56.072Z,2.30
2024-02-15T22:59:24.353Z,2.93
2024-02-15T23:01:52.610Z,2.07
2024-02-15T23:04:20.958Z,5.87
2024-02-15T23:06:49.353Z,3.63
2024-02-15T23:09:17.753Z,4.40
2024-02-15T23:11:45.795Z,3.10
2024-02-15T23:14:15.183Z,5.77
2024-02-15T23:16:43.549Z,4.27
2024-02-15T23:19:13.878Z,5.47
2024-02-15T23:21:43.562Z,8.33
2024-02-15T23:24:11.957Z,8.17
2024-02-15T23:26:40.625Z,14.90
2024-02-15T23:29:11.534Z,10.33
2024-02-15T23:31:41.509Z,7.93
2024-02-15T23:34:10.007Z,7.77
2024-02-15T23:36:55.821Z,5.43
2024-02-15T23:39:41.524Z,5.67
2024-02-15T23:42:10.373Z,6.70
2024-02-15T23:44:38.637Z,4.67
2024-02-15T23:47:08.141Z,4.27
2024-02-15T23:49:36.315Z,2.97
2024-02-15T23:52:04.769Z,8.17
2024-02-15T23:54:33.154Z,2.63
2024-02-15T23:57:01.568Z,3.10
2024-02-15T23:59:29.964Z,4.53
